SWA222 KMDW-KOMA
Flight info
| Callsign | SWA222 |
|---|---|
| Flight time | 1h 8m |
| Altitude | 40000 |
| Route | PEKUE OBENE DSM LANTK2 |
| Aircraft | B738/M-SADE2E3GIJ4RWZ/LB1D1 |
Departure
| Time | 2026-04-23 21:32 |
|---|---|
| Airport | Chicago Midway International Airport (KMDW) |
Arrival
| Time | 2026-04-23 22:41 |
|---|---|
| Airport | Eppley Airfield (KOMA) |
| Time | Latitude | Longitude | Altitude | Speed | Heading |
|---|---|---|---|---|---|
| 2026-04-23 21:06 | 41.78656 | -87.74667 | 656 ft | 0 kts | 108° |
| 2026-04-23 21:26 | 41.78660 | -87.74682 | 632 ft | 4 kts | 105° |
| 2026-04-23 21:26 | 41.78666 | -87.74718 | 630 ft | 4 kts | 96° |
| 2026-04-23 21:26 | 41.78666 | -87.74753 | 628 ft | 4 kts | 81° |
| 2026-04-23 21:26 | 41.78658 | -87.74785 | 631 ft | 4 kts | 43° |
| 2026-04-23 21:27 | 41.78648 | -87.74794 | 628 ft | 0 kts | 13° |
| 2026-04-23 21:30 | 41.78693 | -87.74780 | 629 ft | 14 kts | 24° |
| 2026-04-23 21:30 | 41.78796 | -87.74662 | 632 ft | 25 kts | 43° |
| 2026-04-23 21:30 | 41.78920 | -87.74497 | 637 ft | 31 kts | 43° |
| 2026-04-23 21:30 | 41.79075 | -87.74306 | 633 ft | 18 kts | 43° |
| 2026-04-23 21:31 | 41.79156 | -87.74263 | 628 ft | 8 kts | 340° |
| 2026-04-23 21:31 | 41.79179 | -87.74326 | 628 ft | 8 kts | 260° |
| 2026-04-23 21:31 | 41.79137 | -87.74393 | 634 ft | 17 kts | 223° |
| 2026-04-23 21:31 | 41.78880 | -87.74713 | 635 ft | 87 kts | 223° |
| 2026-04-23 21:32 | 41.78286 | -87.75469 | 657 ft | 143 kts | 224° |
| 2026-04-23 21:32 | 41.77518 | -87.76467 | 1119 ft | 161 kts | 220° |
| 2026-04-23 21:32 | 41.76704 | -87.77404 | 2103 ft | 140 kts | 215° |
| 2026-04-23 21:32 | 41.75964 | -87.78127 | 2923 ft | 135 kts | 211° |
| 2026-04-23 21:33 | 41.75021 | -87.78941 | 2651 ft | 191 kts | 210° |
| 2026-04-23 21:33 | 41.73913 | -87.80173 | 2718 ft | 218 kts | 234° |
| 2026-04-23 21:33 | 41.73589 | -87.82196 | 3098 ft | 237 kts | 273° |
| 2026-04-23 21:33 | 41.74170 | -87.84336 | 3471 ft | 249 kts | 290° |
| 2026-04-23 21:34 | 41.74837 | -87.86487 | 3933 ft | 252 kts | 285° |
| 2026-04-23 21:34 | 41.75404 | -87.88786 | 4198 ft | 267 kts | 281° |
| 2026-04-23 21:34 | 41.75866 | -87.91229 | 4816 ft | 272 kts | 278° |
| 2026-04-23 21:34 | 41.76220 | -87.93651 | 5718 ft | 266 kts | 274° |
| 2026-04-23 21:35 | 41.76499 | -87.96093 | 6645 ft | 266 kts | 272° |
| 2026-04-23 21:35 | 41.76720 | -87.98572 | 7582 ft | 269 kts | 271° |
| 2026-04-23 21:35 | 41.76903 | -88.01082 | 8491 ft | 273 kts | 271° |
| 2026-04-23 21:35 | 41.77059 | -88.03636 | 9381 ft | 277 kts | 270° |
| 2026-04-23 21:36 | 41.77322 | -88.08952 | 10542 ft | 307 kts | 270° |
| 2026-04-23 21:36 | 41.77445 | -88.11919 | 10820 ft | 330 kts | 270° |
| 2026-04-23 21:36 | 41.77568 | -88.15046 | 11409 ft | 339 kts | 270° |
| 2026-04-23 21:37 | 41.77689 | -88.18205 | 12252 ft | 342 kts | 270° |
| 2026-04-23 21:37 | 41.77805 | -88.21369 | 12996 ft | 347 kts | 270° |
| 2026-04-23 21:37 | 41.77920 | -88.24616 | 13821 ft | 349 kts | 270° |
| 2026-04-23 21:37 | 41.78034 | -88.27862 | 14618 ft | 350 kts | 270° |
| 2026-04-23 21:38 | 41.78145 | -88.31136 | 15392 ft | 351 kts | 270° |
| 2026-04-23 21:38 | 41.78255 | -88.34432 | 16049 ft | 358 kts | 270° |
| 2026-04-23 21:38 | 41.78365 | -88.37802 | 16642 ft | 365 kts | 270° |
| 2026-04-23 21:38 | 41.78476 | -88.41188 | 17495 ft | 364 kts | 271° |
| 2026-04-23 21:39 | 41.78587 | -88.44613 | 18054 ft | 372 kts | 271° |
| 2026-04-23 21:39 | 41.78699 | -88.48091 | 18711 ft | 373 kts | 270° |
| 2026-04-23 21:39 | 41.78809 | -88.51541 | 19493 ft | 371 kts | 271° |
| 2026-04-23 21:39 | 41.78919 | -88.55009 | 20138 ft | 374 kts | 271° |
| 2026-04-23 21:40 | 41.79028 | -88.58511 | 20660 ft | 379 kts | 271° |
| 2026-04-23 21:40 | 41.79137 | -88.62058 | 21285 ft | 381 kts | 271° |
| 2026-04-23 21:40 | 41.79247 | -88.65631 | 21758 ft | 388 kts | 271° |
| 2026-04-23 21:40 | 41.79357 | -88.69267 | 22285 ft | 391 kts | 271° |
| 2026-04-23 21:41 | 41.79467 | -88.72909 | 22920 ft | 393 kts | 271° |
| 2026-04-23 21:41 | 41.79577 | -88.76580 | 23418 ft | 396 kts | 272° |
| 2026-04-23 21:41 | 41.79686 | -88.80287 | 23864 ft | 399 kts | 271° |
| 2026-04-23 21:41 | 41.79832 | -88.84017 | 24305 ft | 402 kts | 273° |
| 2026-04-23 21:42 | 41.80050 | -88.87718 | 24722 ft | 406 kts | 274° |
| 2026-04-23 21:42 | 41.80300 | -88.91504 | 25159 ft | 408 kts | 274° |
| 2026-04-23 21:42 | 41.80554 | -88.95301 | 25637 ft | 410 kts | 274° |
| 2026-04-23 21:42 | 41.80803 | -88.99119 | 26037 ft | 413 kts | 274° |
| 2026-04-23 21:43 | 41.81046 | -89.02956 | 26473 ft | 415 kts | 274° |
| 2026-04-23 21:43 | 41.81284 | -89.06827 | 26772 ft | 419 kts | 274° |
| 2026-04-23 21:43 | 41.81520 | -89.10743 | 27187 ft | 421 kts | 274° |
| 2026-04-23 21:43 | 41.81754 | -89.14672 | 27556 ft | 425 kts | 274° |
| 2026-04-23 21:44 | 41.81987 | -89.18622 | 28015 ft | 425 kts | 274° |
| 2026-04-23 21:44 | 41.82219 | -89.22595 | 28334 ft | 429 kts | 274° |
| 2026-04-23 21:44 | 41.82452 | -89.26592 | 28724 ft | 431 kts | 274° |
| 2026-04-23 21:44 | 41.82684 | -89.30611 | 29083 ft | 433 kts | 274° |
| 2026-04-23 21:45 | 41.82914 | -89.34599 | 29416 ft | 436 kts | 274° |
| 2026-04-23 21:45 | 41.83146 | -89.38658 | 29736 ft | 438 kts | 274° |
| 2026-04-23 21:45 | 41.83378 | -89.42743 | 30067 ft | 439 kts | 274° |
| 2026-04-23 21:45 | 41.83609 | -89.46824 | 30494 ft | 438 kts | 274° |
| 2026-04-23 21:46 | 41.83837 | -89.50883 | 30956 ft | 435 kts | 273° |
| 2026-04-23 21:46 | 41.84063 | -89.54926 | 31348 ft | 435 kts | 273° |
| 2026-04-23 21:46 | 41.84287 | -89.58969 | 31692 ft | 435 kts | 273° |
| 2026-04-23 21:46 | 41.84511 | -89.63017 | 32052 ft | 435 kts | 273° |
| 2026-04-23 21:47 | 41.84732 | -89.67047 | 32488 ft | 432 kts | 273° |
| 2026-04-23 21:47 | 41.84934 | -89.71063 | 32928 ft | 430 kts | 271° |
| 2026-04-23 21:47 | 41.84823 | -89.75071 | 33267 ft | 429 kts | 263° |
| 2026-04-23 21:47 | 41.84471 | -89.79046 | 33591 ft | 430 kts | 262° |
| 2026-04-23 21:48 | 41.84097 | -89.83025 | 33937 ft | 429 kts | 262° |
| 2026-04-23 21:48 | 41.83722 | -89.86981 | 34310 ft | 427 kts | 262° |
| 2026-04-23 21:48 | 41.83353 | -89.90916 | 34671 ft | 425 kts | 262° |
| 2026-04-23 21:48 | 41.82995 | -89.94790 | 35009 ft | 423 kts | 262° |
| 2026-04-23 21:49 | 41.82639 | -89.98696 | 35347 ft | 421 kts | 262° |
| 2026-04-23 21:49 | 41.82283 | -90.02625 | 35791 ft | 416 kts | 262° |
| 2026-04-23 21:49 | 41.81942 | -90.06395 | 36256 ft | 411 kts | 262° |
| 2026-04-23 21:49 | 41.81598 | -90.10197 | 36539 ft | 411 kts | 262° |
| 2026-04-23 21:50 | 41.81252 | -90.14010 | 36754 ft | 412 kts | 262° |
| 2026-04-23 21:50 | 41.80906 | -90.17809 | 37048 ft | 411 kts | 262° |
| 2026-04-23 21:50 | 41.80560 | -90.21593 | 37409 ft | 408 kts | 262° |
| 2026-04-23 21:50 | 41.80214 | -90.25360 | 37757 ft | 405 kts | 262° |
| 2026-04-23 21:51 | 41.79869 | -90.29107 | 38045 ft | 404 kts | 262° |
| 2026-04-23 21:51 | 41.79523 | -90.32846 | 38302 ft | 403 kts | 262° |
| 2026-04-23 21:51 | 41.79177 | -90.36575 | 38549 ft | 402 kts | 262° |
| 2026-04-23 21:51 | 41.78831 | -90.40297 | 38756 ft | 402 kts | 261° |
| 2026-04-23 21:52 | 41.78483 | -90.44017 | 38925 ft | 402 kts | 261° |
| 2026-04-23 21:52 | 41.78139 | -90.47686 | 39048 ft | 403 kts | 261° |
| 2026-04-23 21:52 | 41.77788 | -90.51405 | 39195 ft | 403 kts | 261° |
| 2026-04-23 21:52 | 41.77436 | -90.55136 | 39356 ft | 403 kts | 261° |
| 2026-04-23 21:53 | 41.77081 | -90.58875 | 39430 ft | 406 kts | 261° |
| 2026-04-23 21:53 | 41.76362 | -90.66412 | 39584 ft | 409 kts | 261° |
| 2026-04-23 21:53 | 41.75999 | -90.70196 | 39698 ft | 410 kts | 261° |
| 2026-04-23 21:54 | 41.75633 | -90.74000 | 39730 ft | 412 kts | 261° |
| 2026-04-23 21:54 | 41.74893 | -90.81651 | 39740 ft | 415 kts | 261° |
| 2026-04-23 21:55 | 41.74146 | -90.89330 | 39736 ft | 415 kts | 261° |
| 2026-04-23 21:55 | 41.73399 | -90.96959 | 39727 ft | 415 kts | 261° |
| 2026-04-23 21:56 | 41.72643 | -91.04618 | 39730 ft | 415 kts | 261° |
| 2026-04-23 21:56 | 41.71881 | -91.12275 | 39731 ft | 414 kts | 261° |
| 2026-04-23 21:57 | 41.71116 | -91.19927 | 39738 ft | 414 kts | 260° |
| 2026-04-23 21:57 | 41.70346 | -91.27561 | 39720 ft | 414 kts | 260° |
| 2026-04-23 21:58 | 41.69570 | -91.35200 | 39715 ft | 413 kts | 260° |
| 2026-04-23 21:58 | 41.68798 | -91.42757 | 39713 ft | 412 kts | 260° |
| 2026-04-23 21:59 | 41.68017 | -91.50351 | 39710 ft | 412 kts | 260° |
| 2026-04-23 21:59 | 41.67231 | -91.57941 | 39709 ft | 411 kts | 259° |
| 2026-04-23 22:00 | 41.66042 | -91.69329 | 39716 ft | 412 kts | 259° |
| 2026-04-23 22:00 | 41.65242 | -91.76931 | 39713 ft | 413 kts | 259° |
| 2026-04-23 22:01 | 41.64434 | -91.84559 | 39708 ft | 415 kts | 259° |
| 2026-04-23 22:01 | 41.63623 | -91.92160 | 39688 ft | 416 kts | 258° |
| 2026-04-23 22:02 | 41.62799 | -91.99839 | 39685 ft | 417 kts | 258° |
| 2026-04-23 22:02 | 41.61968 | -92.07533 | 39683 ft | 418 kts | 258° |
| 2026-04-23 22:03 | 41.61130 | -92.15247 | 39674 ft | 419 kts | 258° |
| 2026-04-23 22:03 | 41.60286 | -92.22961 | 39669 ft | 420 kts | 258° |
| 2026-04-23 22:04 | 41.59442 | -92.30631 | 39667 ft | 419 kts | 259° |
| 2026-04-23 22:04 | 41.58591 | -92.38318 | 39669 ft | 418 kts | 259° |
| 2026-04-23 22:05 | 41.57737 | -92.45980 | 39671 ft | 416 kts | 259° |
| 2026-04-23 22:05 | 41.56881 | -92.53613 | 39679 ft | 414 kts | 258° |
| 2026-04-23 22:06 | 41.56023 | -92.61217 | 39681 ft | 413 kts | 258° |
| 2026-04-23 22:06 | 41.55164 | -92.68786 | 39680 ft | 412 kts | 259° |
| 2026-04-23 22:07 | 41.54731 | -92.72589 | 39244 ft | 416 kts | 260° |
| 2026-04-23 22:07 | 41.54295 | -92.76399 | 38773 ft | 413 kts | 260° |
| 2026-04-23 22:07 | 41.53859 | -92.80190 | 38225 ft | 413 kts | 260° |
| 2026-04-23 22:07 | 41.53423 | -92.83979 | 37572 ft | 413 kts | 259° |
| 2026-04-23 22:08 | 41.52991 | -92.87714 | 37047 ft | 411 kts | 259° |
| 2026-04-23 22:08 | 41.52557 | -92.91463 | 36649 ft | 406 kts | 259° |
| 2026-04-23 22:08 | 41.52128 | -92.95166 | 36240 ft | 402 kts | 259° |
| 2026-04-23 22:08 | 41.51700 | -92.98839 | 35865 ft | 398 kts | 259° |
| 2026-04-23 22:09 | 41.51276 | -93.02470 | 35488 ft | 394 kts | 259° |
| 2026-04-23 22:09 | 41.50855 | -93.06065 | 35108 ft | 390 kts | 259° |
| 2026-04-23 22:09 | 41.50438 | -93.09622 | 34730 ft | 387 kts | 259° |
| 2026-04-23 22:09 | 41.50020 | -93.13166 | 34357 ft | 384 kts | 259° |
| 2026-04-23 22:10 | 41.49606 | -93.16674 | 33981 ft | 381 kts | 259° |
| 2026-04-23 22:10 | 41.49333 | -93.18986 | 33731 ft | 380 kts | 259° |
| 2026-04-23 22:10 | 41.48788 | -93.23574 | 33196 ft | 377 kts | 259° |
| 2026-04-23 22:10 | 41.48379 | -93.27011 | 32790 ft | 374 kts | 259° |
| 2026-04-23 22:11 | 41.47972 | -93.30422 | 32412 ft | 371 kts | 259° |
| 2026-04-23 22:11 | 41.47699 | -93.32708 | 32164 ft | 368 kts | 259° |
| 2026-04-23 22:11 | 41.47296 | -93.36069 | 31804 ft | 365 kts | 259° |
| 2026-04-23 22:11 | 41.46896 | -93.39398 | 31460 ft | 362 kts | 258° |
| 2026-04-23 22:12 | 41.46494 | -93.42667 | 31116 ft | 361 kts | 258° |
| 2026-04-23 22:12 | 41.46096 | -93.45963 | 30757 ft | 359 kts | 258° |
| 2026-04-23 22:12 | 41.45704 | -93.49240 | 30408 ft | 357 kts | 258° |
| 2026-04-23 22:12 | 41.45311 | -93.52505 | 30067 ft | 356 kts | 258° |
| 2026-04-23 22:13 | 41.44917 | -93.55761 | 29720 ft | 354 kts | 258° |
| 2026-04-23 22:13 | 41.44523 | -93.58995 | 29314 ft | 352 kts | 258° |
| 2026-04-23 22:13 | 41.44130 | -93.62208 | 28930 ft | 350 kts | 258° |
| 2026-04-23 22:13 | 41.43798 | -93.65406 | 28567 ft | 348 kts | 264° |
| 2026-04-23 22:14 | 41.43863 | -93.68646 | 28149 ft | 349 kts | 270° |
| 2026-04-23 22:14 | 41.44053 | -93.71818 | 27776 ft | 346 kts | 271° |
| 2026-04-23 22:14 | 41.44267 | -93.75000 | 27409 ft | 344 kts | 271° |
| 2026-04-23 22:14 | 41.44478 | -93.78165 | 27051 ft | 341 kts | 270° |
| 2026-04-23 22:15 | 41.44677 | -93.81294 | 26716 ft | 338 kts | 270° |
| 2026-04-23 22:15 | 41.44866 | -93.84403 | 26361 ft | 335 kts | 270° |
| 2026-04-23 22:15 | 41.45046 | -93.87493 | 26023 ft | 333 kts | 270° |
| 2026-04-23 22:15 | 41.45220 | -93.90562 | 25683 ft | 331 kts | 269° |
| 2026-04-23 22:16 | 41.45389 | -93.93615 | 25344 ft | 329 kts | 269° |
| 2026-04-23 22:16 | 41.45555 | -93.96649 | 25002 ft | 327 kts | 269° |
| 2026-04-23 22:16 | 41.45718 | -93.99661 | 24673 ft | 325 kts | 269° |
| 2026-04-23 22:16 | 41.45879 | -94.02659 | 24348 ft | 323 kts | 269° |
| 2026-04-23 22:17 | 41.46038 | -94.05643 | 24020 ft | 322 kts | 269° |
| 2026-04-23 22:17 | 41.46195 | -94.08612 | 23699 ft | 321 kts | 269° |
| 2026-04-23 22:17 | 41.46351 | -94.11573 | 23373 ft | 320 kts | 269° |
| 2026-04-23 22:17 | 41.46504 | -94.14489 | 22992 ft | 319 kts | 269° |
| 2026-04-23 22:18 | 41.46658 | -94.17436 | 22628 ft | 317 kts | 269° |
| 2026-04-23 22:18 | 41.46810 | -94.20363 | 22303 ft | 315 kts | 268° |
| 2026-04-23 22:18 | 41.46961 | -94.23266 | 21968 ft | 312 kts | 268° |
| 2026-04-23 22:18 | 41.47109 | -94.26147 | 21644 ft | 310 kts | 268° |
| 2026-04-23 22:19 | 41.47256 | -94.29011 | 21310 ft | 308 kts | 268° |
| 2026-04-23 22:19 | 41.47401 | -94.31851 | 20997 ft | 306 kts | 268° |
| 2026-04-23 22:19 | 41.47544 | -94.34673 | 20681 ft | 304 kts | 268° |
| 2026-04-23 22:19 | 41.47683 | -94.37436 | 20372 ft | 302 kts | 268° |
| 2026-04-23 22:20 | 41.47825 | -94.40256 | 20072 ft | 300 kts | 268° |
| 2026-04-23 22:20 | 41.47961 | -94.42981 | 19765 ft | 298 kts | 268° |
| 2026-04-23 22:20 | 41.48097 | -94.45725 | 19462 ft | 296 kts | 268° |
| 2026-04-23 22:20 | 41.48232 | -94.48462 | 19154 ft | 295 kts | 268° |
| 2026-04-23 22:21 | 41.48366 | -94.51180 | 18854 ft | 293 kts | 268° |
| 2026-04-23 22:21 | 41.48498 | -94.53885 | 18555 ft | 292 kts | 268° |
| 2026-04-23 22:21 | 41.48630 | -94.56583 | 18255 ft | 291 kts | 268° |
| 2026-04-23 22:21 | 41.48760 | -94.59267 | 17953 ft | 290 kts | 267° |
| 2026-04-23 22:22 | 41.48889 | -94.61950 | 17610 ft | 289 kts | 267° |
| 2026-04-23 22:22 | 41.49018 | -94.64616 | 17278 ft | 287 kts | 267° |
| 2026-04-23 22:22 | 41.49145 | -94.67269 | 16966 ft | 286 kts | 267° |
| 2026-04-23 22:22 | 41.49270 | -94.69899 | 16662 ft | 284 kts | 267° |
| 2026-04-23 22:23 | 41.49394 | -94.72521 | 16365 ft | 282 kts | 267° |
| 2026-04-23 22:23 | 41.49486 | -94.74455 | 16143 ft | 280 kts | 267° |
| 2026-04-23 22:23 | 41.49600 | -94.76872 | 15867 ft | 279 kts | 267° |
| 2026-04-23 22:24 | 41.49720 | -94.79445 | 15581 ft | 277 kts | 267° |
| 2026-04-23 22:24 | 41.49840 | -94.82000 | 15392 ft | 274 kts | 267° |
| 2026-04-23 22:24 | 41.49957 | -94.84563 | 15142 ft | 280 kts | 267° |
| 2026-04-23 22:24 | 41.50075 | -94.87185 | 14912 ft | 286 kts | 267° |
| 2026-04-23 22:25 | 41.50194 | -94.89817 | 14681 ft | 289 kts | 267° |
| 2026-04-23 22:25 | 41.50317 | -94.92491 | 14476 ft | 287 kts | 267° |
| 2026-04-23 22:25 | 41.50439 | -94.95135 | 14184 ft | 284 kts | 267° |
| 2026-04-23 22:25 | 41.50559 | -94.97758 | 13902 ft | 282 kts | 268° |
| 2026-04-23 22:26 | 41.50676 | -95.00364 | 13610 ft | 281 kts | 268° |
| 2026-04-23 22:26 | 41.50793 | -95.02960 | 13311 ft | 279 kts | 267° |
| 2026-04-23 22:26 | 41.50908 | -95.05545 | 12988 ft | 278 kts | 268° |
| 2026-04-23 22:26 | 41.51022 | -95.08109 | 12690 ft | 275 kts | 268° |
| 2026-04-23 22:27 | 41.51134 | -95.10654 | 12403 ft | 273 kts | 268° |
| 2026-04-23 22:27 | 41.51244 | -95.13175 | 12118 ft | 271 kts | 267° |
| 2026-04-23 22:27 | 41.51025 | -95.15610 | 11812 ft | 261 kts | 248° |
| 2026-04-23 22:27 | 41.50381 | -95.17843 | 11552 ft | 257 kts | 245° |
| 2026-04-23 22:28 | 41.49706 | -95.20041 | 11267 ft | 255 kts | 244° |
| 2026-04-23 22:28 | 41.49019 | -95.22221 | 10999 ft | 254 kts | 244° |
| 2026-04-23 22:28 | 41.48343 | -95.24347 | 10727 ft | 252 kts | 244° |
| 2026-04-23 22:28 | 41.47667 | -95.26494 | 10455 ft | 250 kts | 244° |
| 2026-04-23 22:29 | 41.46993 | -95.28632 | 10203 ft | 249 kts | 244° |
| 2026-04-23 22:29 | 41.46343 | -95.30726 | 10118 ft | 240 kts | 245° |
| 2026-04-23 22:29 | 41.45707 | -95.32751 | 9995 ft | 233 kts | 244° |
| 2026-04-23 22:29 | 41.45075 | -95.34748 | 9719 ft | 236 kts | 245° |
| 2026-04-23 22:30 | 41.44482 | -95.36825 | 9461 ft | 243 kts | 247° |
| 2026-04-23 22:30 | 41.43909 | -95.38971 | 9198 ft | 248 kts | 249° |
| 2026-04-23 22:30 | 41.43382 | -95.41183 | 8921 ft | 251 kts | 252° |
| 2026-04-23 22:30 | 41.42885 | -95.43390 | 8710 ft | 246 kts | 248° |
| 2026-04-23 22:31 | 41.42307 | -95.45518 | 8498 ft | 242 kts | 248° |
| 2026-04-23 22:31 | 41.41764 | -95.47598 | 8260 ft | 239 kts | 250° |
| 2026-04-23 22:31 | 41.41234 | -95.49681 | 8026 ft | 236 kts | 249° |
| 2026-04-23 22:31 | 41.40699 | -95.51725 | 7835 ft | 232 kts | 250° |
| 2026-04-23 22:32 | 41.40185 | -95.53747 | 7622 ft | 229 kts | 249° |
| 2026-04-23 22:32 | 41.39665 | -95.55744 | 7436 ft | 229 kts | 250° |
| 2026-04-23 22:32 | 41.39185 | -95.57786 | 7261 ft | 234 kts | 253° |
| 2026-04-23 22:32 | 41.38706 | -95.59887 | 7062 ft | 240 kts | 247° |
| 2026-04-23 22:33 | 41.37643 | -95.61603 | 6757 ft | 247 kts | 215° |
| 2026-04-23 22:33 | 41.36139 | -95.62685 | 6490 ft | 246 kts | 208° |
| 2026-04-23 22:33 | 41.34564 | -95.63587 | 6206 ft | 246 kts | 206° |
| 2026-04-23 22:33 | 41.32987 | -95.64457 | 5920 ft | 245 kts | 206° |
| 2026-04-23 22:34 | 41.31421 | -95.65323 | 5651 ft | 243 kts | 206° |
| 2026-04-23 22:34 | 41.29883 | -95.66183 | 5363 ft | 242 kts | 207° |
| 2026-04-23 22:34 | 41.28330 | -95.67059 | 5187 ft | 236 kts | 206° |
| 2026-04-23 22:34 | 41.26863 | -95.67889 | 5069 ft | 229 kts | 207° |
| 2026-04-23 22:35 | 41.25404 | -95.68717 | 4965 ft | 221 kts | 208° |
| 2026-04-23 22:35 | 41.24037 | -95.69499 | 4861 ft | 212 kts | 207° |
| 2026-04-23 22:35 | 41.22699 | -95.70264 | 4767 ft | 209 kts | 207° |
| 2026-04-23 22:35 | 41.21365 | -95.71028 | 4691 ft | 208 kts | 208° |
| 2026-04-23 22:36 | 41.20030 | -95.71791 | 4484 ft | 212 kts | 207° |
| 2026-04-23 22:36 | 41.18660 | -95.72580 | 4286 ft | 215 kts | 211° |
| 2026-04-23 22:36 | 41.17555 | -95.73822 | 4022 ft | 206 kts | 248° |
| 2026-04-23 22:36 | 41.17485 | -95.75656 | 3840 ft | 202 kts | 276° |
| 2026-04-23 22:37 | 41.17775 | -95.77476 | 3602 ft | 202 kts | 292° |
| 2026-04-23 22:37 | 41.18601 | -95.78949 | 3452 ft | 198 kts | 311° |
| 2026-04-23 22:37 | 41.19717 | -95.80033 | 3156 ft | 201 kts | 328° |
| 2026-04-23 22:37 | 41.20898 | -95.80963 | 2892 ft | 192 kts | 323° |
| 2026-04-23 22:38 | 41.22000 | -95.81906 | 2661 ft | 184 kts | 322° |
| 2026-04-23 22:38 | 41.23035 | -95.82793 | 2563 ft | 170 kts | 324° |
| 2026-04-23 22:38 | 41.24045 | -95.83633 | 2251 ft | 172 kts | 324° |
| 2026-04-23 22:38 | 41.25005 | -95.84508 | 2046 ft | 167 kts | 320° |
| 2026-04-23 22:39 | 41.25912 | -95.85397 | 1850 ft | 155 kts | 322° |
| 2026-04-23 22:39 | 41.26785 | -95.86228 | 1728 ft | 156 kts | 323° |
| 2026-04-23 22:39 | 41.27657 | -95.87074 | 1466 ft | 153 kts | 323° |
| 2026-04-23 22:39 | 41.28503 | -95.87894 | 1224 ft | 146 kts | 325° |
| 2026-04-23 22:40 | 41.29305 | -95.88639 | 1034 ft | 135 kts | 324° |
| 2026-04-23 22:40 | 41.30019 | -95.89318 | 986 ft | 111 kts | 325° |
| 2026-04-23 22:40 | 41.31007 | -95.90248 | 985 ft | 73 kts | 324° |
| 2026-04-23 22:41 | 41.31230 | -95.90460 | 993 ft | 32 kts | 323° |
| 2026-04-23 22:41 | 41.31342 | -95.90607 | 994 ft | 17 kts | 283° |
| 2026-04-23 22:41 | 41.31303 | -95.90714 | 991 ft | 8 kts | 196° |
| 2026-04-23 22:41 | 41.31256 | -95.90676 | 989 ft | 10 kts | 131° |
| 2026-04-23 22:42 | 41.31199 | -95.90611 | 991 ft | 11 kts | 145° |
| 2026-04-23 22:42 | 41.31128 | -95.90544 | 992 ft | 16 kts | 142° |
| 2026-04-23 22:42 | 41.31008 | -95.90429 | 987 ft | 27 kts | 146° |
| 2026-04-23 22:42 | 41.30830 | -95.90264 | 981 ft | 34 kts | 144° |
| 2026-04-23 22:43 | 41.30640 | -95.90082 | 985 ft | 32 kts | 144° |
| 2026-04-23 22:43 | 41.30462 | -95.89917 | 990 ft | 30 kts | 144° |
| 2026-04-23 22:43 | 41.30300 | -95.89761 | 991 ft | 28 kts | 144° |
| 2026-04-23 22:43 | 41.30214 | -95.89658 | 984 ft | 15 kts | 129° |
| 2026-04-23 22:44 | 41.30121 | -95.89604 | 986 ft | 16 kts | 180° |
| 2026-04-23 22:44 | 41.30014 | -95.89608 | 989 ft | 15 kts | 182° |
| 2026-04-23 22:44 | 41.29911 | -95.89609 | 990 ft | 15 kts | 177° |
| 2026-04-23 22:44 | 41.29814 | -95.89622 | 990 ft | 14 kts | 214° |
| 2026-04-23 22:45 | 41.29739 | -95.89686 | 990 ft | 13 kts | 182° |
| 2026-04-23 22:45 | 41.29652 | -95.89704 | 987 ft | 13 kts | 225° |
| 2026-04-23 22:45 | 41.29645 | -95.89818 | 985 ft | 13 kts | 277° |
| 2026-04-23 22:45 | 41.29670 | -95.89923 | 991 ft | 12 kts | 324° |
| 2026-04-23 22:46 | 41.29737 | -95.89962 | 987 ft | 8 kts | 19° |
| 2026-04-23 22:46 | 41.29769 | -95.89903 | 988 ft | 8 kts | 84° |
| 2026-04-23 22:46 | 41.29769 | -95.89889 | 985 ft | 0 kts | 86° |
| 2026-04-23 22:47 | 41.30177 | -95.89817 | 989 ft | 0 kts | 210° |